sensor_id;sensor_type;location;lat;lon;timestamp;P1;durP1;ratioP1;P2;durP2;ratioP2
43626;SDS011;29217;52.586;13.442;2023-03-03T00:01:38;23.52;;;9.02;;
43626;SDS011;29217;52.586;13.442;2023-03-03T00:04:04;24.58;;;10.18;;
43626;SDS011;29217;52.586;13.442;2023-03-03T00:06:30;25.13;;;11.20;;
43626;SDS011;29217;52.586;13.442;2023-03-03T00:08:56;24.13;;;10.10;;
43626;SDS011;29217;52.586;13.442;2023-03-03T00:11:22;28.10;;;10.75;;
43626;SDS011;29217;52.586;13.442;2023-03-03T00:13:49;27.17;;;11.05;;
43626;SDS011;29217;52.586;13.442;2023-03-03T00:16:26;27.13;;;11.13;;
43626;SDS011;29217;52.586;13.442;2023-03-03T00:18:52;29.00;;;10.52;;
43626;SDS011;29217;52.586;13.442;2023-03-03T00:23:49;28.30;;;11.05;;
43626;SDS011;29217;52.586;13.442;2023-03-03T00:26:22;26.70;;;11.18;;
43626;SDS011;29217;52.586;13.442;2023-03-03T00:28:52;30.42;;;10.98;;
43626;SDS011;29217;52.586;13.442;2023-03-03T00:31:34;28.52;;;10.85;;
43626;SDS011;29217;52.586;13.442;2023-03-03T00:34:18;23.85;;;11.18;;
43626;SDS011;29217;52.586;13.442;2023-03-03T00:36:48;26.08;;;10.85;;
43626;SDS011;29217;52.586;13.442;2023-03-03T00:41:42;28.40;;;11.52;;
43626;SDS011;29217;52.586;13.442;2023-03-03T00:46:46;29.08;;;10.57;;
43626;SDS011;29217;52.586;13.442;2023-03-03T00:49:15;28.05;;;11.35;;
43626;SDS011;29217;52.586;13.442;2023-03-03T00:51:45;30.70;;;10.73;;
43626;SDS011;29217;52.586;13.442;2023-03-03T00:54:10;27.20;;;11.27;;
43626;SDS011;29217;52.586;13.442;2023-03-03T00:56:37;26.42;;;10.75;;
43626;SDS011;29217;52.586;13.442;2023-03-03T00:59:02;27.60;;;10.15;;
43626;SDS011;29217;52.586;13.442;2023-03-03T01:01:28;26.33;;;10.90;;
43626;SDS011;29217;52.586;13.442;2023-03-03T01:03:54;27.80;;;10.55;;
43626;SDS011;29217;52.586;13.442;2023-03-03T01:06:20;29.30;;;11.18;;
43626;SDS011;29217;52.586;13.442;2023-03-03T01:08:46;25.33;;;10.30;;
43626;SDS011;29217;52.586;13.442;2023-03-03T01:11:14;23.63;;;10.02;;
43626;SDS011;29217;52.586;13.442;2023-03-03T01:13:43;27.92;;;11.77;;
43626;SDS011;29217;52.586;13.442;2023-03-03T01:16:10;27.05;;;11.40;;
43626;SDS011;29217;52.586;13.442;2023-03-03T01:18:36;29.80;;;10.82;;
43626;SDS011;29217;52.586;13.442;2023-03-03T01:21:04;27.00;;;10.90;;
43626;SDS011;29217;52.586;13.442;2023-03-03T01:23:30;26.15;;;11.68;;
43626;SDS011;29217;52.586;13.442;2023-03-03T01:25:56;26.23;;;10.93;;
43626;SDS011;29217;52.586;13.442;2023-03-03T01:28:22;29.90;;;11.13;;
43626;SDS011;29217;52.586;13.442;2023-03-03T01:30:48;26.92;;;10.57;;
43626;SDS011;29217;52.586;13.442;2023-03-03T01:33:15;27.27;;;10.05;;
43626;SDS011;29217;52.586;13.442;2023-03-03T01:35:45;24.75;;;11.25;;
43626;SDS011;29217;52.586;13.442;2023-03-03T01:38:11;32.40;;;11.48;;
43626;SDS011;29217;52.586;13.442;2023-03-03T01:40:38;25.15;;;10.93;;
43626;SDS011;29217;52.586;13.442;2023-03-03T01:43:05;29.88;;;10.88;;
43626;SDS011;29217;52.586;13.442;2023-03-03T01:53:35;28.50;;;11.50;;
43626;SDS011;29217;52.586;13.442;2023-03-03T01:56:02;31.83;;;12.07;;
43626;SDS011;29217;52.586;13.442;2023-03-03T01:58:29;24.50;;;10.85;;
43626;SDS011;29217;52.586;13.442;2023-03-03T02:01:03;26.33;;;10.90;;
43626;SDS011;29217;52.586;13.442;2023-03-03T02:03:30;28.20;;;11.35;;
43626;SDS011;29217;52.586;13.442;2023-03-03T02:05:57;28.15;;;12.43;;
43626;SDS011;29217;52.586;13.442;2023-03-03T02:08:27;27.42;;;12.65;;
43626;SDS011;29217;52.586;13.442;2023-03-03T02:10:56;24.27;;;11.18;;
43626;SDS011;29217;52.586;13.442;2023-03-03T02:13:22;28.20;;;12.30;;
43626;SDS011;29217;52.586;13.442;2023-03-03T02:15:48;25.88;;;11.07;;
43626;SDS011;29217;52.586;13.442;2023-03-03T02:18:15;27.90;;;11.13;;
43626;SDS011;29217;52.586;13.442;2023-03-03T02:23:40;24.80;;;11.57;;
43626;SDS011;29217;52.586;13.442;2023-03-03T02:26:17;29.98;;;10.95;;
43626;SDS011;29217;52.586;13.442;2023-03-03T02:28:46;22.98;;;9.50;;
43626;SDS011;29217;52.586;13.442;2023-03-03T02:31:13;25.50;;;10.45;;
43626;SDS011;29217;52.586;13.442;2023-03-03T02:33:43;23.30;;;10.48;;
43626;SDS011;29217;52.586;13.442;2023-03-03T02:36:15;30.70;;;12.10;;
43626;SDS011;29217;52.586;13.442;2023-03-03T02:39:15;27.55;;;11.45;;
43626;SDS011;29217;52.586;13.442;2023-03-03T02:41:35;29.35;;;11.43;;
43626;SDS011;29217;52.586;13.442;2023-03-03T02:44:08;31.58;;;12.00;;
43626;SDS011;29217;52.586;13.442;2023-03-03T02:46:36;25.83;;;10.85;;
43626;SDS011;29217;52.586;13.442;2023-03-03T02:49:02;22.02;;;10.52;;
43626;SDS011;29217;52.586;13.442;2023-03-03T02:51:29;27.40;;;11.23;;
43626;SDS011;29217;52.586;13.442;2023-03-03T02:53:55;31.48;;;11.55;;
43626;SDS011;29217;52.586;13.442;2023-03-03T02:56:21;29.73;;;12.48;;
43626;SDS011;29217;52.586;13.442;2023-03-03T02:58:47;27.85;;;11.55;;
43626;SDS011;29217;52.586;13.442;2023-03-03T03:01:13;28.73;;;11.88;;
43626;SDS011;29217;52.586;13.442;2023-03-03T03:03:39;23.23;;;10.65;;
43626;SDS011;29217;52.586;13.442;2023-03-03T03:06:05;27.95;;;11.43;;
43626;SDS011;29217;52.586;13.442;2023-03-03T03:08:31;29.80;;;11.82;;
43626;SDS011;29217;52.586;13.442;2023-03-03T03:10:57;29.23;;;10.65;;
43626;SDS011;29217;52.586;13.442;2023-03-03T03:13:23;27.13;;;11.77;;
43626;SDS011;29217;52.586;13.442;2023-03-03T03:15:50;27.05;;;10.70;;
43626;SDS011;29217;52.586;13.442;2023-03-03T03:18:16;27.20;;;9.80;;
43626;SDS011;29217;52.586;13.442;2023-03-03T03:20:42;24.77;;;10.05;;
43626;SDS011;29217;52.586;13.442;2023-03-03T03:23:09;23.15;;;9.60;;
43626;SDS011;29217;52.586;13.442;2023-03-03T03:25:35;22.25;;;9.65;;
43626;SDS011;29217;52.586;13.442;2023-03-03T03:28:06;23.15;;;9.57;;
43626;SDS011;29217;52.586;13.442;2023-03-03T03:30:34;22.88;;;9.65;;
43626;SDS011;29217;52.586;13.442;2023-03-03T03:33:00;29.00;;;10.52;;
43626;SDS011;29217;52.586;13.442;2023-03-03T03:35:27;25.08;;;9.70;;
43626;SDS011;29217;52.586;13.442;2023-03-03T03:37:53;22.92;;;10.13;;
43626;SDS011;29217;52.586;13.442;2023-03-03T03:40:19;26.63;;;11.18;;
43626;SDS011;29217;52.586;13.442;2023-03-03T03:42:45;23.00;;;9.18;;
43626;SDS011;29217;52.586;13.442;2023-03-03T03:45:11;24.25;;;8.27;;
43626;SDS011;29217;52.586;13.442;2023-03-03T03:47:39;24.95;;;10.00;;
43626;SDS011;29217;52.586;13.442;2023-03-03T03:50:06;22.20;;;9.23;;
43626;SDS011;29217;52.586;13.442;2023-03-03T03:52:32;20.08;;;8.82;;
43626;SDS011;29217;52.586;13.442;2023-03-03T03:54:58;27.25;;;10.02;;
43626;SDS011;29217;52.586;13.442;2023-03-03T03:57:24;21.52;;;9.60;;
43626;SDS011;29217;52.586;13.442;2023-03-03T03:59:50;22.13;;;8.75;;
43626;SDS011;29217;52.586;13.442;2023-03-03T04:02:16;23.20;;;8.98;;
43626;SDS011;29217;52.586;13.442;2023-03-03T04:04:42;29.60;;;10.13;;
43626;SDS011;29217;52.586;13.442;2023-03-03T04:07:08;22.30;;;9.15;;
43626;SDS011;29217;52.586;13.442;2023-03-03T04:09:34;22.58;;;9.13;;
43626;SDS011;29217;52.586;13.442;2023-03-03T04:12:00;25.15;;;9.75;;
43626;SDS011;29217;52.586;13.442;2023-03-03T04:14:26;27.33;;;10.45;;
43626;SDS011;29217;52.586;13.442;2023-03-03T04:16:52;23.73;;;9.27;;
43626;SDS011;29217;52.586;13.442;2023-03-03T04:19:18;23.00;;;9.48;;
43626;SDS011;29217;52.586;13.442;2023-03-03T04:21:44;21.38;;;9.65;;
43626;SDS011;29217;52.586;13.442;2023-03-03T04:24:10;24.17;;;9.52;;
43626;SDS011;29217;52.586;13.442;2023-03-03T04:26:36;26.80;;;10.40;;
43626;SDS011;29217;52.586;13.442;2023-03-03T04:29:02;33.85;;;9.65;;
43626;SDS011;29217;52.586;13.442;2023-03-03T04:31:28;27.92;;;9.30;;
43626;SDS011;29217;52.586;13.442;2023-03-03T04:33:54;25.25;;;9.93;;
43626;SDS011;29217;52.586;13.442;2023-03-03T04:36:20;26.55;;;9.77;;
43626;SDS011;29217;52.586;13.442;2023-03-03T04:38:46;27.65;;;10.07;;
43626;SDS011;29217;52.586;13.442;2023-03-03T04:41:13;29.20;;;10.90;;
43626;SDS011;29217;52.586;13.442;2023-03-03T04:43:39;23.83;;;9.73;;
43626;SDS011;29217;52.586;13.442;2023-03-03T04:46:05;22.98;;;9.60;;
43626;SDS011;29217;52.586;13.442;2023-03-03T04:48:31;28.45;;;9.38;;
43626;SDS011;29217;52.586;13.442;2023-03-03T04:50:57;18.77;;;8.90;;
43626;SDS011;29217;52.586;13.442;2023-03-03T04:53:23;19.83;;;8.45;;
43626;SDS011;29217;52.586;13.442;2023-03-03T04:55:52;20.60;;;8.27;;
43626;SDS011;29217;52.586;13.442;2023-03-03T04:58:18;25.17;;;8.60;;
43626;SDS011;29217;52.586;13.442;2023-03-03T05:00:45;20.38;;;8.82;;
43626;SDS011;29217;52.586;13.442;2023-03-03T05:03:11;19.70;;;8.40;;
43626;SDS011;29217;52.586;13.442;2023-03-03T05:05:37;19.58;;;8.45;;
43626;SDS011;29217;52.586;13.442;2023-03-03T05:08:04;23.00;;;8.52;;
43626;SDS011;29217;52.586;13.442;2023-03-03T05:10:31;20.33;;;8.25;;
43626;SDS011;29217;52.586;13.442;2023-03-03T05:12:56;23.35;;;8.68;;
43626;SDS011;29217;52.586;13.442;2023-03-03T05:15:22;22.13;;;10.00;;
43626;SDS011;29217;52.586;13.442;2023-03-03T05:17:48;20.33;;;8.35;;
43626;SDS011;29217;52.586;13.442;2023-03-03T05:20:17;31.45;;;9.73;;
43626;SDS011;29217;52.586;13.442;2023-03-03T05:22:43;20.65;;;8.55;;
43626;SDS011;29217;52.586;13.442;2023-03-03T05:25:09;24.83;;;9.75;;
43626;SDS011;29217;52.586;13.442;2023-03-03T05:27:36;22.08;;;9.88;;
43626;SDS011;29217;52.586;13.442;2023-03-03T05:30:02;18.73;;;8.40;;
43626;SDS011;29217;52.586;13.442;2023-03-03T05:32:28;22.40;;;9.68;;
43626;SDS011;29217;52.586;13.442;2023-03-03T05:34:54;25.60;;;9.02;;
43626;SDS011;29217;52.586;13.442;2023-03-03T05:37:20;22.77;;;9.73;;
43626;SDS011;29217;52.586;13.442;2023-03-03T05:39:48;20.92;;;8.52;;
43626;SDS011;29217;52.586;13.442;2023-03-03T05:42:14;27.55;;;10.20;;
43626;SDS011;29217;52.586;13.442;2023-03-03T05:44:40;25.92;;;9.63;;
43626;SDS011;29217;52.586;13.442;2023-03-03T05:47:06;22.88;;;9.50;;
43626;SDS011;29217;52.586;13.442;2023-03-03T05:49:34;23.95;;;9.88;;
43626;SDS011;29217;52.586;13.442;2023-03-03T05:52:03;27.25;;;11.13;;
43626;SDS011;29217;52.586;13.442;2023-03-03T05:54:36;22.98;;;9.15;;
43626;SDS011;29217;52.586;13.442;2023-03-03T05:57:03;26.17;;;9.23;;
43626;SDS011;29217;52.586;13.442;2023-03-03T05:59:32;20.98;;;8.35;;
43626;SDS011;29217;52.586;13.442;2023-03-03T06:01:58;26.63;;;10.00;;
43626;SDS011;29217;52.586;13.442;2023-03-03T06:04:24;22.17;;;9.02;;
43626;SDS011;29217;52.586;13.442;2023-03-03T06:06:50;35.08;;;9.52;;
43626;SDS011;29217;52.586;13.442;2023-03-03T06:09:18;22.65;;;8.65;;
43626;SDS011;29217;52.586;13.442;2023-03-03T06:11:45;24.95;;;9.00;;
43626;SDS011;29217;52.586;13.442;2023-03-03T06:14:13;30.58;;;9.18;;
43626;SDS011;29217;52.586;13.442;2023-03-03T06:16:39;21.92;;;8.27;;
43626;SDS011;29217;52.586;13.442;2023-03-03T06:19:07;21.67;;;8.15;;
43626;SDS011;29217;52.586;13.442;2023-03-03T06:21:33;23.35;;;8.27;;
43626;SDS011;29217;52.586;13.442;2023-03-03T06:23:59;21.70;;;8.82;;
43626;SDS011;29217;52.586;13.442;2023-03-03T06:26:25;19.50;;;7.55;;
43626;SDS011;29217;52.586;13.442;2023-03-03T06:28:51;18.67;;;7.93;;
43626;SDS011;29217;52.586;13.442;2023-03-03T06:31:19;21.27;;;9.02;;
43626;SDS011;29217;52.586;13.442;2023-03-03T06:33:45;19.40;;;8.02;;
43626;SDS011;29217;52.586;13.442;2023-03-03T06:36:11;21.15;;;7.43;;
43626;SDS011;29217;52.586;13.442;2023-03-03T06:38:37;20.15;;;8.07;;
43626;SDS011;29217;52.586;13.442;2023-03-03T06:41:03;22.23;;;8.93;;
43626;SDS011;29217;52.586;13.442;2023-03-03T06:43:32;22.65;;;8.55;;
43626;SDS011;29217;52.586;13.442;2023-03-03T06:45:57;20.65;;;8.15;;
43626;SDS011;29217;52.586;13.442;2023-03-03T06:48:27;20.70;;;8.32;;
43626;SDS011;29217;52.586;13.442;2023-03-03T06:50:53;19.27;;;8.18;;
43626;SDS011;29217;52.586;13.442;2023-03-03T06:53:21;20.50;;;8.50;;
43626;SDS011;29217;52.586;13.442;2023-03-03T06:55:50;21.67;;;8.52;;
43626;SDS011;29217;52.586;13.442;2023-03-03T06:58:17;19.60;;;8.18;;
43626;SDS011;29217;52.586;13.442;2023-03-03T07:00:44;16.42;;;7.28;;
43626;SDS011;29217;52.586;13.442;2023-03-03T07:03:17;19.45;;;7.97;;
43626;SDS011;29217;52.586;13.442;2023-03-03T07:05:44;17.50;;;6.65;;
43626;SDS011;29217;52.586;13.442;2023-03-03T07:08:20;21.60;;;8.90;;
43626;SDS011;29217;52.586;13.442;2023-03-03T07:10:47;16.70;;;6.55;;
43626;SDS011;29217;52.586;13.442;2023-03-03T07:15:39;19.90;;;7.25;;
43626;SDS011;29217;52.586;13.442;2023-03-03T07:18:06;21.73;;;7.45;;
43626;SDS011;29217;52.586;13.442;2023-03-03T07:20:37;22.40;;;8.73;;
43626;SDS011;29217;52.586;13.442;2023-03-03T07:23:10;19.27;;;8.38;;
43626;SDS011;29217;52.586;13.442;2023-03-03T07:25:43;17.52;;;7.20;;
43626;SDS011;29217;52.586;13.442;2023-03-03T07:28:14;21.48;;;8.13;;
43626;SDS011;29217;52.586;13.442;2023-03-03T07:30:41;27.80;;;8.88;;
43626;SDS011;29217;52.586;13.442;2023-03-03T07:33:10;24.73;;;7.97;;
43626;SDS011;29217;52.586;13.442;2023-03-03T07:35:43;19.63;;;7.85;;
43626;SDS011;29217;52.586;13.442;2023-03-03T07:40:57;23.42;;;8.27;;
43626;SDS011;29217;52.586;13.442;2023-03-03T07:43:40;26.83;;;8.77;;
43626;SDS011;29217;52.586;13.442;2023-03-03T07:48:52;21.30;;;8.05;;
43626;SDS011;29217;52.586;13.442;2023-03-03T07:51:37;19.38;;;7.78;;
43626;SDS011;29217;52.586;13.442;2023-03-03T07:54:17;25.15;;;8.80;;
43626;SDS011;29217;52.586;13.442;2023-03-03T07:56:52;21.10;;;7.72;;
43626;SDS011;29217;52.586;13.442;2023-03-03T07:59:22;23.50;;;7.63;;
43626;SDS011;29217;52.586;13.442;2023-03-03T08:01:55;17.75;;;7.20;;
43626;SDS011;29217;52.586;13.442;2023-03-03T08:04:36;23.20;;;8.00;;
43626;SDS011;29217;52.586;13.442;2023-03-03T08:07:08;19.98;;;8.00;;
43626;SDS011;29217;52.586;13.442;2023-03-03T08:09:36;23.15;;;9.27;;
43626;SDS011;29217;52.586;13.442;2023-03-03T08:14:34;23.77;;;8.05;;
43626;SDS011;29217;52.586;13.442;2023-03-03T08:17:00;25.08;;;8.23;;
43626;SDS011;29217;52.586;13.442;2023-03-03T08:19:29;25.45;;;9.00;;
43626;SDS011;29217;52.586;13.442;2023-03-03T08:21:57;19.05;;;8.77;;
43626;SDS011;29217;52.586;13.442;2023-03-03T08:24:25;17.05;;;6.85;;
43626;SDS011;29217;52.586;13.442;2023-03-03T08:26:51;17.90;;;7.35;;
43626;SDS011;29217;52.586;13.442;2023-03-03T08:29:17;16.65;;;6.63;;
43626;SDS011;29217;52.586;13.442;2023-03-03T08:31:47;21.88;;;7.10;;
43626;SDS011;29217;52.586;13.442;2023-03-03T08:34:13;17.17;;;6.68;;
43626;SDS011;29217;52.586;13.442;2023-03-03T08:36:39;14.27;;;5.60;;
43626;SDS011;29217;52.586;13.442;2023-03-03T08:39:05;13.73;;;6.05;;
43626;SDS011;29217;52.586;13.442;2023-03-03T08:41:31;16.70;;;7.05;;
43626;SDS011;29217;52.586;13.442;2023-03-03T08:43:57;12.55;;;5.15;;
43626;SDS011;29217;52.586;13.442;2023-03-03T08:46:26;14.73;;;5.55;;
43626;SDS011;29217;52.586;13.442;2023-03-03T08:48:52;16.52;;;6.40;;
43626;SDS011;29217;52.586;13.442;2023-03-03T08:51:18;15.93;;;6.60;;
43626;SDS011;29217;52.586;13.442;2023-03-03T08:53:44;14.45;;;6.00;;
43626;SDS011;29217;52.586;13.442;2023-03-03T08:56:10;21.42;;;6.90;;
43626;SDS011;29217;52.586;13.442;2023-03-03T08:58:36;15.80;;;5.78;;
43626;SDS011;29217;52.586;13.442;2023-03-03T09:01:04;14.82;;;6.85;;
43626;SDS011;29217;52.586;13.442;2023-03-03T09:03:33;14.77;;;5.72;;
43626;SDS011;29217;52.586;13.442;2023-03-03T09:05:59;14.90;;;6.43;;
43626;SDS011;29217;52.586;13.442;2023-03-03T09:08:25;15.70;;;6.18;;
43626;SDS011;29217;52.586;13.442;2023-03-03T09:10:50;13.00;;;5.97;;
43626;SDS011;29217;52.586;13.442;2023-03-03T09:13:17;13.95;;;5.70;;
43626;SDS011;29217;52.586;13.442;2023-03-03T09:15:46;17.45;;;6.93;;
43626;SDS011;29217;52.586;13.442;2023-03-03T09:20:51;16.42;;;6.63;;
43626;SDS011;29217;52.586;13.442;2023-03-03T09:25:58;16.95;;;7.05;;
43626;SDS011;29217;52.586;13.442;2023-03-03T09:28:31;16.35;;;6.40;;
43626;SDS011;29217;52.586;13.442;2023-03-03T09:30:58;22.65;;;7.05;;
43626;SDS011;29217;52.586;13.442;2023-03-03T09:33:41;21.38;;;7.60;;
43626;SDS011;29217;52.586;13.442;2023-03-03T09:38:41;17.52;;;6.03;;
43626;SDS011;29217;52.586;13.442;2023-03-03T09:41:13;15.13;;;5.57;;
43626;SDS011;29217;52.586;13.442;2023-03-03T09:46:20;12.10;;;5.55;;
43626;SDS011;29217;52.586;13.442;2023-03-03T09:56:49;12.38;;;5.53;;
43626;SDS011;29217;52.586;13.442;2023-03-03T10:05:01;14.20;;;5.93;;
43626;SDS011;29217;52.586;13.442;2023-03-03T10:07:38;14.82;;;6.65;;
43626;SDS011;29217;52.586;13.442;2023-03-03T10:10:50;15.43;;;6.22;;
43626;SDS011;29217;52.586;13.442;2023-03-03T10:13:10;17.45;;;6.88;;
43626;SDS011;29217;52.586;13.442;2023-03-03T10:20:46;12.88;;;6.40;;
43626;SDS011;29217;52.586;13.442;2023-03-03T10:34:18;15.32;;;6.80;;
43626;SDS011;29217;52.586;13.442;2023-03-03T10:36:52;17.23;;;7.47;;
43626;SDS011;29217;52.586;13.442;2023-03-03T10:49:25;18.85;;;7.22;;
43626;SDS011;29217;52.586;13.442;2023-03-03T10:52:16;16.00;;;7.00;;
43626;SDS011;29217;52.586;13.442;2023-03-03T10:54:48;17.33;;;7.85;;
43626;SDS011;29217;52.586;13.442;2023-03-03T10:57:36;13.48;;;6.65;;
43626;SDS011;29217;52.586;13.442;2023-03-03T11:05:44;20.08;;;8.43;;
43626;SDS011;29217;52.586;13.442;2023-03-03T11:08:16;17.88;;;7.90;;
43626;SDS011;29217;52.586;13.442;2023-03-03T11:10:51;16.90;;;7.57;;
43626;SDS011;29217;52.586;13.442;2023-03-03T11:18:24;18.08;;;7.55;;
43626;SDS011;29217;52.586;13.442;2023-03-03T11:23:43;18.77;;;8.35;;
43626;SDS011;29217;52.586;13.442;2023-03-03T11:28:52;26.13;;;8.43;;
43626;SDS011;29217;52.586;13.442;2023-03-03T11:31:37;22.65;;;8.65;;
43626;SDS011;29217;52.586;13.442;2023-03-03T11:36:51;24.83;;;8.10;;
43626;SDS011;29217;52.586;13.442;2023-03-03T11:39:23;22.73;;;9.07;;
43626;SDS011;29217;52.586;13.442;2023-03-03T11:42:01;26.70;;;9.95;;
43626;SDS011;29217;52.586;13.442;2023-03-03T11:45:10;23.10;;;9.63;;
43626;SDS011;29217;52.586;13.442;2023-03-03T11:47:30;24.75;;;8.50;;
43626;SDS011;29217;52.586;13.442;2023-03-03T11:50:00;20.75;;;7.75;;
43626;SDS011;29217;52.586;13.442;2023-03-03T11:54:54;20.52;;;8.40;;
43626;SDS011;29217;52.586;13.442;2023-03-03T12:05:37;22.02;;;9.43;;
43626;SDS011;29217;52.586;13.442;2023-03-03T12:26:12;22.17;;;9.02;;
43626;SDS011;29217;52.586;13.442;2023-03-03T12:28:45;21.17;;;9.10;;
43626;SDS011;29217;52.586;13.442;2023-03-03T12:43:57;22.13;;;8.40;;
43626;SDS011;29217;52.586;13.442;2023-03-03T12:48:53;25.60;;;9.18;;
43626;SDS011;29217;52.586;13.442;2023-03-03T12:59:19;19.35;;;7.85;;
43626;SDS011;29217;52.586;13.442;2023-03-03T13:11:58;23.08;;;9.10;;
43626;SDS011;29217;52.586;13.442;2023-03-03T13:19:22;21.25;;;8.35;;
43626;SDS011;29217;52.586;13.442;2023-03-03T13:22:34;22.17;;;8.60;;
43626;SDS011;29217;52.586;13.442;2023-03-03T13:27:08;23.45;;;9.27;;
43626;SDS011;29217;52.586;13.442;2023-03-03T13:29:38;24.67;;;9.93;;
43626;SDS011;29217;52.586;13.442;2023-03-03T13:32:11;25.52;;;9.60;;
43626;SDS011;29217;52.586;13.442;2023-03-03T13:34:48;24.00;;;10.40;;
43626;SDS011;29217;52.586;13.442;2023-03-03T13:37:51;20.88;;;9.45;;
43626;SDS011;29217;52.586;13.442;2023-03-03T13:42:51;24.27;;;10.00;;
43626;SDS011;29217;52.586;13.442;2023-03-03T13:45:24;24.05;;;9.80;;
43626;SDS011;29217;52.586;13.442;2023-03-03T13:50:52;20.77;;;9.27;;
43626;SDS011;29217;52.586;13.442;2023-03-03T13:53:33;21.48;;;9.40;;
43626;SDS011;29217;52.586;13.442;2023-03-03T13:58:35;16.02;;;8.05;;
43626;SDS011;29217;52.586;13.442;2023-03-03T14:01:05;16.50;;;7.95;;
43626;SDS011;29217;52.586;13.442;2023-03-03T14:06:01;18.50;;;8.15;;
43626;SDS011;29217;52.586;13.442;2023-03-03T14:16:50;22.30;;;9.35;;
43626;SDS011;29217;52.586;13.442;2023-03-03T14:18:58;21.00;;;10.15;;
43626;SDS011;29217;52.586;13.442;2023-03-03T14:21:27;19.83;;;9.18;;
43626;SDS011;29217;52.586;13.442;2023-03-03T14:26:26;23.77;;;9.38;;
43626;SDS011;29217;52.586;13.442;2023-03-03T14:29:03;23.45;;;9.68;;
43626;SDS011;29217;52.586;13.442;2023-03-03T14:31:30;20.23;;;9.55;;
43626;SDS011;29217;52.586;13.442;2023-03-03T14:36:48;23.60;;;10.10;;
43626;SDS011;29217;52.586;13.442;2023-03-03T14:39:29;24.13;;;9.90;;
43626;SDS011;29217;52.586;13.442;2023-03-03T14:41:56;21.40;;;9.80;;
43626;SDS011;29217;52.586;13.442;2023-03-03T14:44:27;17.95;;;8.75;;
43626;SDS011;29217;52.586;13.442;2023-03-03T14:47:11;18.63;;;8.73;;
43626;SDS011;29217;52.586;13.442;2023-03-03T14:49:42;22.38;;;9.98;;
43626;SDS011;29217;52.586;13.442;2023-03-03T14:54:37;24.50;;;10.02;;
43626;SDS011;29217;52.586;13.442;2023-03-03T14:59:30;24.15;;;10.00;;
43626;SDS011;29217;52.586;13.442;2023-03-03T15:04:40;22.50;;;9.75;;
43626;SDS011;29217;52.586;13.442;2023-03-03T15:07:40;18.10;;;8.57;;
43626;SDS011;29217;52.586;13.442;2023-03-03T15:09:59;23.77;;;8.43;;
43626;SDS011;29217;52.586;13.442;2023-03-03T15:12:33;19.05;;;9.88;;
43626;SDS011;29217;52.586;13.442;2023-03-03T15:17:35;21.70;;;10.35;;
43626;SDS011;29217;52.586;13.442;2023-03-03T15:27:48;23.05;;;10.07;;
43626;SDS011;29217;52.586;13.442;2023-03-03T15:30:29;25.42;;;10.65;;
43626;SDS011;29217;52.586;13.442;2023-03-03T15:33:06;20.83;;;9.43;;
43626;SDS011;29217;52.586;13.442;2023-03-03T15:43:13;26.88;;;9.75;;
43626;SDS011;29217;52.586;13.442;2023-03-03T15:46:00;24.92;;;11.70;;
43626;SDS011;29217;52.586;13.442;2023-03-03T15:51:19;27.08;;;10.00;;
43626;SDS011;29217;52.586;13.442;2023-03-03T16:01:31;29.15;;;10.65;;
43626;SDS011;29217;52.586;13.442;2023-03-03T16:06:29;23.58;;;10.43;;
43626;SDS011;29217;52.586;13.442;2023-03-03T16:11:29;22.23;;;9.45;;
43626;SDS011;29217;52.586;13.442;2023-03-03T16:14:03;24.63;;;9.35;;
43626;SDS011;29217;52.586;13.442;2023-03-03T16:32:09;23.98;;;9.68;;
43626;SDS011;29217;52.586;13.442;2023-03-03T16:52:55;25.35;;;9.18;;
43626;SDS011;29217;52.586;13.442;2023-03-03T16:55:34;24.13;;;9.75;;
43626;SDS011;29217;52.586;13.442;2023-03-03T16:58:04;25.48;;;10.60;;
43626;SDS011;29217;52.586;13.442;2023-03-03T17:00:37;20.88;;;9.93;;
43626;SDS011;29217;52.586;13.442;2023-03-03T17:03:23;23.17;;;10.88;;
43626;SDS011;29217;52.586;13.442;2023-03-03T17:08:35;27.98;;;11.57;;
43626;SDS011;29217;52.586;13.442;2023-03-03T17:11:27;20.23;;;9.85;;
43626;SDS011;29217;52.586;13.442;2023-03-03T17:16:27;24.02;;;9.90;;
43626;SDS011;29217;52.586;13.442;2023-03-03T17:24:02;24.98;;;10.93;;
43626;SDS011;29217;52.586;13.442;2023-03-03T17:26:50;24.38;;;11.00;;
43626;SDS011;29217;52.586;13.442;2023-03-03T17:36:54;25.55;;;10.48;;
43626;SDS011;29217;52.586;13.442;2023-03-03T17:44:38;20.40;;;9.55;;
43626;SDS011;29217;52.586;13.442;2023-03-03T17:47:07;25.50;;;11.00;;
43626;SDS011;29217;52.586;13.442;2023-03-03T18:00:29;23.40;;;10.68;;
43626;SDS011;29217;52.586;13.442;2023-03-03T18:07:51;23.65;;;10.48;;
43626;SDS011;29217;52.586;13.442;2023-03-03T18:10:36;23.05;;;10.32;;
43626;SDS011;29217;52.586;13.442;2023-03-03T18:18:25;27.65;;;11.15;;
43626;SDS011;29217;52.586;13.442;2023-03-03T18:21:03;26.02;;;10.98;;
43626;SDS011;29217;52.586;13.442;2023-03-03T18:23:31;23.60;;;10.57;;
43626;SDS011;29217;52.586;13.442;2023-03-03T18:25:59;27.58;;;10.90;;
43626;SDS011;29217;52.586;13.442;2023-03-03T18:31:27;22.40;;;9.75;;
43626;SDS011;29217;52.586;13.442;2023-03-03T18:38:53;23.45;;;10.82;;
43626;SDS011;29217;52.586;13.442;2023-03-03T18:41:29;27.42;;;10.93;;
43626;SDS011;29217;52.586;13.442;2023-03-03T18:43:57;23.65;;;11.02;;
43626;SDS011;29217;52.586;13.442;2023-03-03T18:49:04;24.42;;;11.18;;
43626;SDS011;29217;52.586;13.442;2023-03-03T18:57:12;19.83;;;9.43;;
43626;SDS011;29217;52.586;13.442;2023-03-03T19:04:53;23.10;;;10.75;;
43626;SDS011;29217;52.586;13.442;2023-03-03T19:07:20;23.67;;;9.88;;
43626;SDS011;29217;52.586;13.442;2023-03-03T19:10:00;25.98;;;11.93;;
43626;SDS011;29217;52.586;13.442;2023-03-03T19:12:44;25.77;;;11.85;;
43626;SDS011;29217;52.586;13.442;2023-03-03T19:17:59;25.55;;;11.50;;
43626;SDS011;29217;52.586;13.442;2023-03-03T19:20:35;23.77;;;10.45;;
43626;SDS011;29217;52.586;13.442;2023-03-03T19:23:04;33.03;;;10.90;;
43626;SDS011;29217;52.586;13.442;2023-03-03T19:25:31;23.52;;;10.95;;
43626;SDS011;29217;52.586;13.442;2023-03-03T19:48:57;24.02;;;10.57;;
43626;SDS011;29217;52.586;13.442;2023-03-03T19:51:27;29.35;;;11.23;;
43626;SDS011;29217;52.586;13.442;2023-03-03T20:09:13;26.80;;;10.95;;
43626;SDS011;29217;52.586;13.442;2023-03-03T20:11:55;24.60;;;10.82;;
43626;SDS011;29217;52.586;13.442;2023-03-03T20:22:54;17.27;;;8.43;;
43626;SDS011;29217;52.586;13.442;2023-03-03T20:36:01;22.08;;;9.18;;
43626;SDS011;29217;52.586;13.442;2023-03-03T20:40:59;15.93;;;7.43;;
43626;SDS011;29217;52.586;13.442;2023-03-03T20:43:37;16.50;;;7.28;;
43626;SDS011;29217;52.586;13.442;2023-03-03T20:48:49;13.73;;;5.78;;
43626;SDS011;29217;52.586;13.442;2023-03-03T20:51:30;12.05;;;6.10;;
43626;SDS011;29217;52.586;13.442;2023-03-03T21:01:25;13.82;;;5.15;;
43626;SDS011;29217;52.586;13.442;2023-03-03T21:03:54;12.50;;;5.47;;
43626;SDS011;29217;52.586;13.442;2023-03-03T21:06:40;14.48;;;6.22;;
43626;SDS011;29217;52.586;13.442;2023-03-03T21:09:06;13.15;;;5.40;;
43626;SDS011;29217;52.586;13.442;2023-03-03T21:13:58;14.20;;;6.53;;
43626;SDS011;29217;52.586;13.442;2023-03-03T21:19:02;16.92;;;7.72;;